SPQU/AQP METAR and TAF weather

Enter ICAO airport designator
Station Type Date Time Source
SPQU METAR 2019/04/24 16:00 UTC NOAA

SPQU 241600Z 23007KT 190V280 9000 BKN100 17/09 Q1026 NOSIG RMK PP000


Station Type Date Time Source
SPQU Decoded METAR 2019/04/24 16:00 UTC NOAA

Arequipa, Peru (SPQU) 16-19S 071-33W 2539M
Apr 24, 2019 - 12:00 PM EDT / 2019.04.24 1600 UTC
Wind: from the SW (230 degrees) at 8 MPH (7 KT) (direction variable):0
Visibility: 5 mile(s):0
Sky conditions: mostly cloudy
Temperature: 62 F (17 C)
Dew Point: 48 F (9 C)
Relative Humidity: 59%
Pressure (altimeter): 30.30 in. Hg (1026 hPa)
ob: SPQU 241600Z 23007KT 190V280 9000 BKN100 17/09 Q1026 NOSIG RMK PP000
cycle: 16

Station Type Date Time Source
SPQU TAF 2019/04/24 12:37 UTC NOAA

TAF SPQU 241100Z 2412/2512 VRB03KT 8000 SCT010 BKN100 TX22/2418Z TN11/2510Z
TEMPO 2412/2414 3000 BR SCT005 BKN070
FM241400 24005KT 9999 FEW050
FM241800 28011KT 9999 SCT050 SCT150
FM250300 06005KT 9999 SCT060

Example: see airport list